Terminal Aerodrome Forecast
Issued by NWS

Home | Current Version | Previous Version | Text Only | Print | Product List | Glossary On
Versions: 1 2 3 4 5 6 7 8 9 10 11 12 13 14 15 16 17 18 19 20 21 22 23 24 25 26 27 28
000
FTUS43 KDTX 020755 CCA
TAFYIP
TAF COR
KYIP 020755Z 0207/0306 24009KT P6SM SCT250
     FM021600 24015G24KT P6SM SCT060
     FM030100 22014G22KT P6SM BKN050 BKN120 PROB30 0303/0306 2SM
      TSRA BKN040CB OVC080=

USA.gov is the U.S. government's official web portal to all federal, state and local government web resources and services.